| Date | Time | Temp. (oF) | Dew Point (oF) | Rel. Hum. (%) | Press. (in.) | Wind Dir. | Wind Speed (mph) | Hourly Rainfall (in.) |
|
|---|---|---|---|---|---|---|---|---|---|
| 1 | 10/14 | 00:00 | 64 | 56 | 78 | 30.13 | SSE | 1 | 0.00 |
| 2 | 10/13 | 23:00 | 64 | 56 | 77 | 30.13 | ESE | 4 | 0.00 |
| 3 | 10/13 | 22:00 | 66 | 57 | 74 | 30.13 | SSE | 4 | 0.00 |
| 4 | 10/13 | 21:00 | 68 | 58 | 72 | 30.12 | ESE | 3 | 0.00 |
| 5 | 10/13 | 20:00 | 69 | 59 | 71 | 30.12 | SE | 4 | 0.00 |
| 6 | 10/13 | 19:00 | 71 | 59 | 67 | 30.09 | SSE | 4 | 0.00 |
| 7 | 10/13 | 18:00 | 74 | 59 | 61 | 30.06 | SSE | 3 | 0.00 |
| 8 | 10/13 | 17:00 | 76 | 61 | 60 | 30.05 | SSE | 8 | 0.00 |
| 9 | 10/13 | 16:00 | 77 | 61 | 59 | 30.05 | SE | 6 | 0.00 |
| 10 | 10/13 | 15:00 | 79 | 62 | 57 | 30.06 | SSE | 6 | 0.00 |
| 11 | 10/13 | 14:00 | 78 | 62 | 60 | 30.08 | SSE | 8 | 0.00 |
| 12 | 10/13 | 13:00 | 76 | 62 | 63 | 30.11 | S | 7 | 0.00 |
| 13 | 10/13 | 12:00 | 73 | 61 | 68 | 30.13 | SSW | 1 | 0.00 |
| 14 | 10/13 | 11:00 | 70 | 60 | 73 | 30.15 | SSW | 4 | 0.00 |
| 15 | 10/13 | 10:00 | 66 | 59 | 80 | 30.15 | SE | 2 | 0.00 |
| 16 | 10/13 | 09:00 | 62 | 59 | 92 | 30.15 | ESE | 2 | 0.00 |
| 17 | 10/13 | 08:00 | 59 | 56 | 92 | 30.15 | WNW | 0 | 0.00 |
| 18 | 10/13 | 07:00 | 61 | 57 | 89 | 30.13 | SE | 1 | 0.00 |
| 19 | 10/13 | 06:00 | 62 | 58 | 87 | 30.11 | SSE | 1 | 0.00 |
| 20 | 10/13 | 05:00 | 63 | 58 | 86 | 30.10 | S | 2 | 0.00 |
| 21 | 10/13 | 04:00 | 63 | 58 | 86 | 30.10 | S | 3 | 0.00 |
| 22 | 10/13 | 03:00 | 62 | 56 | 83 | 30.10 | SSE | 3 | 0.00 |
| 23 | 10/13 | 02:00 | 63 | 56 | 79 | 30.09 | SSE | 1 | 0.00 |
| 24 | 10/13 | 01:00 | 64 | 57 | 79 | 30.10 | SSE | 4 | 0.00 |